createdAt,value
2022-09-07T00:00:42.202Z,4.95
2022-09-07T00:04:45.056Z,3.55
2022-09-07T00:08:47.842Z,7.55
2022-09-07T00:12:51.557Z,4.82
2022-09-07T00:16:54.441Z,4.10
2022-09-07T00:21:01.995Z,3.75
2022-09-07T00:25:05.656Z,3.75
2022-09-07T00:29:08.489Z,4.28
2022-09-07T00:33:11.275Z,4.93
2022-09-07T00:37:14.224Z,6.47
2022-09-07T00:41:17.973Z,5.95
2022-09-07T00:45:21.688Z,7.65
2022-09-07T00:49:24.824Z,5.68
2022-09-07T00:53:38.196Z,5.85
2022-09-07T00:57:45.409Z,5.75
2022-09-07T01:01:48.695Z,4.85
2022-09-07T01:06:13.188Z,8.77
2022-09-07T01:10:16.373Z,5.57
2022-09-07T01:14:23.333Z,8.50
2022-09-07T01:19:01.213Z,8.40
2022-09-07T01:23:37.798Z,5.38
2022-09-07T01:27:58.777Z,5.50
2022-09-07T01:32:12.028Z,3.88
2022-09-07T01:36:29.086Z,6.15
2022-09-07T01:44:58.596Z,4.20
2022-09-07T01:49:18.057Z,5.97
2022-09-07T01:53:31.015Z,6.15
2022-09-07T01:57:41.494Z,5.40
2022-09-07T02:02:07.649Z,6.63
2022-09-07T02:06:16.468Z,5.15
2022-09-07T02:10:30.017Z,6.20
2022-09-07T02:14:38.007Z,5.88
2022-09-07T02:19:10.858Z,5.90
2022-09-07T02:23:26.166Z,7.32
2022-09-07T02:27:39.737Z,4.75
2022-09-07T02:31:42.550Z,5.68
2022-09-07T02:35:46.469Z,5.40
2022-09-07T02:39:49.409Z,3.47
2022-09-07T02:43:52.261Z,4.30
2022-09-07T02:48:03.956Z,3.85
2022-09-07T02:52:21.662Z,4.68
2022-09-07T02:56:38.161Z,5.43
2022-09-07T03:05:21.615Z,6.03
2022-09-07T03:09:30.595Z,5.20
2022-09-07T03:13:33.539Z,5.93
2022-09-07T03:17:36.276Z,8.73
2022-09-07T03:21:39.128Z,10.27
2022-09-07T03:25:42.086Z,7.38
2022-09-07T03:29:44.818Z,8.30
2022-09-07T03:33:47.589Z,6.57
2022-09-07T03:37:50.326Z,6.38
2022-09-07T03:41:53.102Z,6.75
2022-09-07T03:46:00.763Z,6.60
2022-09-07T03:50:04.660Z,7.18
2022-09-07T03:54:07.496Z,8.30
2022-09-07T03:58:10.184Z,7.50
2022-09-07T04:02:13.799Z,8.18
2022-09-07T04:06:17.559Z,7.40
2022-09-07T04:10:20.284Z,7.32
2022-09-07T04:14:23.232Z,6.45
2022-09-07T04:18:26.203Z,7.05
2022-09-07T04:22:28.989Z,6.88
2022-09-07T04:26:35.771Z,7.10
2022-09-07T04:30:38.515Z,8.25
2022-09-07T04:34:41.764Z,6.80
2022-09-07T04:38:45.277Z,7.30
2022-09-07T04:42:48.047Z,6.75
2022-09-07T04:46:51.230Z,6.25
2022-09-07T04:50:54.134Z,7.30
2022-09-07T04:54:56.968Z,8.45
2022-09-07T04:59:02.489Z,7.45
2022-09-07T05:03:06.258Z,5.93
2022-09-07T05:07:08.955Z,11.70
2022-09-07T05:11:13.156Z,7.65
2022-09-07T05:15:15.962Z,7.28
2022-09-07T05:19:18.855Z,7.68
2022-09-07T05:23:21.917Z,9.25
2022-09-07T05:27:24.934Z,8.57
2022-09-07T05:31:28.908Z,7.90
2022-09-07T05:35:32.489Z,8.05
2022-09-07T05:39:35.249Z,7.80
2022-09-07T05:48:00.978Z,7.95
2022-09-07T05:52:03.919Z,9.82
2022-09-07T05:56:07.223Z,9.43
2022-09-07T06:00:10.793Z,7.40
2022-09-07T06:04:14.887Z,9.43
2022-09-07T06:08:17.632Z,8.60
2022-09-07T06:12:20.503Z,11.10
2022-09-07T06:16:23.424Z,8.88
2022-09-07T06:20:26.721Z,9.30
2022-09-07T06:24:29.424Z,10.15
2022-09-07T06:28:34.602Z,10.07
2022-09-07T06:32:45.523Z,9.95
2022-09-07T06:36:48.971Z,13.70
2022-09-07T06:45:15.406Z,8.45
2022-09-07T06:49:18.225Z,8.90
2022-09-07T06:53:37.639Z,8.05
2022-09-07T06:57:42.233Z,6.35
2022-09-07T07:01:45.027Z,8.90
2022-09-07T07:05:55.676Z,9.73
2022-09-07T07:09:58.445Z,5.80
2022-09-07T07:14:02.095Z,6.55
2022-09-07T07:18:19.954Z,6.97
2022-09-07T07:22:45.670Z,6.90
2022-09-07T07:26:48.701Z,7.13
2022-09-07T07:30:56.437Z,5.60
2022-09-07T07:34:59.567Z,7.40
2022-09-07T07:39:05.883Z,6.05
2022-09-07T07:43:08.970Z,5.30
2022-09-07T07:47:40.062Z,5.70
2022-09-07T07:56:14.699Z,6.88
2022-09-07T08:00:53.362Z,5.63
2022-09-07T08:04:46.053Z,9.10
2022-09-07T08:08:48.899Z,7.10
2022-09-07T08:12:53.345Z,5.47
2022-09-07T08:16:59.147Z,5.22
2022-09-07T08:21:08.408Z,7.72
2022-09-07T08:25:14.811Z,7.90
2022-09-07T08:29:19.832Z,5.38
2022-09-07T08:33:25.446Z,7.70
2022-09-07T08:37:31.119Z,5.30
2022-09-07T08:42:07.932Z,5.97
2022-09-07T08:51:29.799Z,5.93
2022-09-07T08:55:44.083Z,6.88
2022-09-07T08:59:53.464Z,11.15
2022-09-07T09:08:37.180Z,7.57
2022-09-07T09:13:12.770Z,6.05
2022-09-07T09:17:26.191Z,7.73
2022-09-07T09:21:29.069Z,9.68
2022-09-07T09:25:37.333Z,7.32
2022-09-07T09:29:40.061Z,7.95
2022-09-07T09:33:42.866Z,9.73
2022-09-07T09:37:45.924Z,11.23
2022-09-07T09:41:50.041Z,9.82
2022-09-07T09:54:53.822Z,9.18
2022-09-07T10:03:55.109Z,8.88
2022-09-07T10:07:58.798Z,7.45
2022-09-07T10:12:07.072Z,7.50
2022-09-07T10:16:17.135Z,13.38
2022-09-07T10:20:45.107Z,12.40
2022-09-07T10:24:48.285Z,12.43
2022-09-07T10:29:15.351Z,8.05
2022-09-07T10:33:43.238Z,15.33
2022-09-07T10:38:50.528Z,9.82
2022-09-07T10:43:22.850Z,8.57
2022-09-07T10:47:43.542Z,9.25
2022-09-07T10:52:23.357Z,8.32
2022-09-07T10:56:35.134Z,10.55
2022-09-07T11:00:48.813Z,8.15
2022-09-07T11:05:13.027Z,6.88
2022-09-07T11:10:00.529Z,8.85
2022-09-07T11:14:13.468Z,7.32
2022-09-07T11:18:51.418Z,9.70
2022-09-07T11:23:03.523Z,12.30
2022-09-07T11:27:35.607Z,6.45
2022-09-07T11:31:40.549Z,13.60
2022-09-07T11:35:52.377Z,7.72
2022-09-07T11:40:09.434Z,12.63
2022-09-07T11:44:24.836Z,10.88
2022-09-07T11:48:34.146Z,11.63
2022-09-07T11:52:40.973Z,6.28
2022-09-07T11:56:50.354Z,7.78
2022-09-07T12:01:14.947Z,11.05
2022-09-07T12:05:31.287Z,7.90
2022-09-07T12:10:14.033Z,11.18
2022-09-07T12:14:47.868Z,8.75
2022-09-07T12:19:28.174Z,12.77
2022-09-07T12:23:32.119Z,10.35
2022-09-07T12:27:34.834Z,7.95
2022-09-07T12:32:52.385Z,5.80
2022-09-07T12:36:38.699Z,7.85
2022-09-07T12:40:48.937Z,7.65
2022-09-07T12:45:29.830Z,10.32
2022-09-07T12:49:53.172Z,7.80
2022-09-07T12:54:19.785Z,7.65
2022-09-07T12:58:39.521Z,8.18
2022-09-07T13:02:53.716Z,10.13
2022-09-07T13:07:15.304Z,11.55
2022-09-07T13:11:21.234Z,9.23
2022-09-07T13:19:46.744Z,7.85
2022-09-07T13:28:51.661Z,11.35
2022-09-07T13:33:29.590Z,11.85
2022-09-07T13:37:54.231Z,9.55
2022-09-07T13:41:59.360Z,6.18
2022-09-07T13:46:12.654Z,7.35
2022-09-07T13:50:35.711Z,8.07
2022-09-07T13:54:44.517Z,11.18
2022-09-07T13:58:51.906Z,8.75
2022-09-07T14:02:57.063Z,7.53
2022-09-07T14:07:15.446Z,6.78
2022-09-07T14:11:26.906Z,6.57
2022-09-07T14:15:39.474Z,8.75
2022-09-07T14:19:46.097Z,7.80
2022-09-07T14:23:51.367Z,8.45
2022-09-07T14:27:54.175Z,5.85
2022-09-07T14:31:59.460Z,8.80
2022-09-07T14:36:23.353Z,7.47
2022-09-07T14:40:28.013Z,8.80
2022-09-07T14:44:40.612Z,6.03
2022-09-07T14:48:45.893Z,15.45
2022-09-07T14:57:17.309Z,6.65
2022-09-07T15:01:40.517Z,9.50
2022-09-07T15:05:48.937Z,7.67
2022-09-07T15:09:51.700Z,7.80
2022-09-07T15:13:57.615Z,10.45
2022-09-07T15:18:08.442Z,6.97
2022-09-07T15:22:13.355Z,8.88
2022-09-07T15:30:39.711Z,10.93
2022-09-07T15:34:43.922Z,9.18
2022-09-07T15:39:03.341Z,8.70
2022-09-07T15:43:19.459Z,7.45
2022-09-07T15:56:09.084Z,10.32
2022-09-07T16:00:12.614Z,15.80
2022-09-07T16:04:15.926Z,9.93
2022-09-07T16:08:26.632Z,14.80
2022-09-07T16:21:21.537Z,10.32
2022-09-07T16:25:28.872Z,10.57
2022-09-07T16:29:31.698Z,11.23
2022-09-07T16:33:37.022Z,11.55
2022-09-07T16:38:43.771Z,14.40
2022-09-07T16:42:02.788Z,12.98
2022-09-07T16:46:07.613Z,10.48
2022-09-07T16:50:10.380Z,11.23
2022-09-07T16:54:14.334Z,11.05
2022-09-07T17:02:40.384Z,11.77
2022-09-07T17:06:43.247Z,14.52
2022-09-07T17:10:46.853Z,16.45
2022-09-07T17:14:49.851Z,13.77
2022-09-07T17:23:21.271Z,12.35
2022-09-07T17:27:24.272Z,10.13
2022-09-07T17:36:01.393Z,8.70
2022-09-07T17:40:06.039Z,9.27
2022-09-07T17:44:09.192Z,9.35
2022-09-07T17:48:14.825Z,7.32
2022-09-07T17:52:17.701Z,7.30
2022-09-07T17:56:22.612Z,8.00
2022-09-07T18:00:25.666Z,10.18
2022-09-07T18:04:28.986Z,12.45
2022-09-07T18:08:31.866Z,8.45
2022-09-07T18:12:34.698Z,8.68
2022-09-07T18:16:37.465Z,9.15
2022-09-07T18:20:40.826Z,9.38
2022-09-07T18:24:43.933Z,9.40
2022-09-07T18:29:18.934Z,9.57
2022-09-07T18:33:16.674Z,11.32
2022-09-07T18:37:19.673Z,10.07
2022-09-07T18:41:23.272Z,7.00
2022-09-07T18:45:27.887Z,10.68
2022-09-07T18:49:30.953Z,8.40
2022-09-07T18:53:34.638Z,7.28
2022-09-07T18:57:37.978Z,11.32
2022-09-07T19:01:40.870Z,7.18
2022-09-07T19:05:52.553Z,9.73
2022-09-07T19:09:56.134Z,13.32
2022-09-07T19:14:01.022Z,10.98
2022-09-07T19:18:05.711Z,12.27
2022-09-07T19:22:08.471Z,10.40
2022-09-07T19:26:11.673Z,12.82
2022-09-07T19:30:15.654Z,8.02
2022-09-07T19:34:18.632Z,10.77
2022-09-07T19:38:21.783Z,11.48
2022-09-07T19:42:25.812Z,15.27
2022-09-07T19:46:28.613Z,11.02
2022-09-07T19:50:32.367Z,10.85
2022-09-07T19:54:36.424Z,10.18
2022-09-07T19:58:41.311Z,10.95
2022-09-07T20:02:44.186Z,9.05
2022-09-07T20:06:51.986Z,11.07
2022-09-07T20:15:02.212Z,10.95
2022-09-07T20:19:09.254Z,13.40
2022-09-07T20:23:12.057Z,12.32
2022-09-07T20:27:14.702Z,11.48
2022-09-07T20:31:17.918Z,8.68
2022-09-07T20:35:20.696Z,14.20
2022-09-07T20:39:24.064Z,16.23
2022-09-07T20:43:28.169Z,12.02
2022-09-07T20:47:31.481Z,14.32
2022-09-07T20:51:34.377Z,11.38
2022-09-07T20:55:37.168Z,9.20
2022-09-07T20:59:39.909Z,14.00
2022-09-07T21:03:49.415Z,10.85
2022-09-07T21:07:52.436Z,9.02
2022-09-07T21:11:57.116Z,9.23
2022-09-07T21:16:05.129Z,15.57
2022-09-07T21:20:08.246Z,8.45
2022-09-07T21:24:23.362Z,17.20
2022-09-07T21:28:27.095Z,13.77
2022-09-07T21:32:29.792Z,13.70
2022-09-07T21:36:34.152Z,14.90
2022-09-07T21:40:41.066Z,15.60
2022-09-07T21:44:43.766Z,12.80
2022-09-07T21:48:46.702Z,13.02
2022-09-07T21:52:49.393Z,15.88
2022-09-07T21:56:53.439Z,14.32
2022-09-07T22:00:57.248Z,11.32
2022-09-07T22:05:00.241Z,14.75
2022-09-07T22:09:04.999Z,17.00
2022-09-07T22:13:07.860Z,14.35
2022-09-07T22:17:10.553Z,13.05
2022-09-07T22:21:20.337Z,14.50
2022-09-07T22:25:23.310Z,13.10
2022-09-07T22:29:26.394Z,13.57
2022-09-07T22:33:29.119Z,14.07
2022-09-07T22:37:32.296Z,15.95
2022-09-07T22:41:37.219Z,15.18
2022-09-07T22:45:39.992Z,14.82
2022-09-07T22:49:42.699Z,15.00
2022-09-07T22:53:45.528Z,17.90
2022-09-07T22:57:48.329Z,15.73
2022-09-07T23:01:51.556Z,15.82
2022-09-07T23:05:54.695Z,15.40
2022-09-07T23:09:57.481Z,14.80
2022-09-07T23:14:02.251Z,16.13
2022-09-07T23:18:05.025Z,18.58
2022-09-07T23:22:07.784Z,17.67
2022-09-07T23:26:10.634Z,18.73
2022-09-07T23:30:13.663Z,18.30
2022-09-07T23:34:16.616Z,17.92
2022-09-07T23:38:19.481Z,17.70
2022-09-07T23:42:22.500Z,18.40
2022-09-07T23:46:25.520Z,16.95
2022-09-07T23:50:28.477Z,16.02
2022-09-07T23:54:31.367Z,16.70
2022-09-07T23:58:34.183Z,15.70
